createdAt,value
2023-01-28T00:00:56.946Z,101036.31
2023-01-28T00:03:24.148Z,101036.53
2023-01-28T00:05:52.257Z,101036.44
2023-01-28T00:08:19.264Z,101038.19
2023-01-28T00:10:46.283Z,101039.41
2023-01-28T00:13:14.873Z,101033.16
2023-01-28T00:15:42.668Z,101041.56
2023-01-28T00:18:09.967Z,101038.34
2023-01-28T00:20:37.090Z,101036.09
2023-01-28T00:23:04.197Z,101034.44
2023-01-28T00:25:31.631Z,101036.47
2023-01-28T00:27:58.865Z,101037.94
2023-01-28T00:30:25.831Z,101028.28
2023-01-28T00:32:55.627Z,101040.44
2023-01-28T00:35:22.733Z,101034.84
2023-01-28T00:37:49.750Z,101035.78
2023-01-28T00:40:17.281Z,101031.25
2023-01-28T00:42:44.336Z,101030.00
2023-01-28T00:45:11.679Z,101038.19
2023-01-28T00:47:38.751Z,101043.25
2023-01-28T00:50:06.477Z,101030.53
2023-01-28T00:52:33.506Z,101038.19
2023-01-28T00:55:01.127Z,101033.41
2023-01-28T00:57:28.170Z,101037.25
2023-01-28T00:59:55.186Z,101024.66
2023-01-28T01:02:23.090Z,101030.19
2023-01-28T01:04:59.085Z,101030.53
2023-01-28T01:07:41.497Z,101035.28
2023-01-28T01:10:18.227Z,101031.91
2023-01-28T01:12:49.659Z,101030.44
2023-01-28T01:15:18.984Z,101036.22
2023-01-28T01:17:49.042Z,101028.09
2023-01-28T01:20:20.798Z,101029.22
2023-01-28T01:22:48.527Z,101021.75
2023-01-28T01:25:17.578Z,101028.22
2023-01-28T01:27:48.418Z,101027.53
2023-01-28T01:30:17.073Z,101020.13
2023-01-28T01:32:44.133Z,101015.34
2023-01-28T01:35:11.419Z,101021.84
2023-01-28T01:37:38.447Z,101024.47
2023-01-28T01:40:06.325Z,101023.59
2023-01-28T01:42:33.772Z,101032.31
2023-01-28T01:45:07.145Z,101034.81
2023-01-28T01:48:05.873Z,101029.00
2023-01-28T01:50:42.156Z,101023.44
2023-01-28T01:53:16.076Z,101029.16
2023-01-28T01:55:49.969Z,101023.00
2023-01-28T01:58:21.647Z,101031.28
2023-01-28T02:00:48.658Z,101032.31
2023-01-28T02:03:21.834Z,101034.22
2023-01-28T02:05:50.819Z,101021.41
2023-01-28T02:08:25.558Z,101029.78
2023-01-28T02:11:05.372Z,101030.19
2023-01-28T02:13:57.111Z,101036.09
2023-01-28T02:16:25.447Z,101033.06
2023-01-28T02:18:52.497Z,101030.47
2023-01-28T02:21:22.341Z,101038.63
2023-01-28T02:24:16.576Z,101029.00
2023-01-28T02:27:11.367Z,101033.84
2023-01-28T02:30:16.364Z,101043.06
2023-01-28T02:33:07.013Z,101036.13
2023-01-28T02:35:53.624Z,101044.19
2023-01-28T02:38:33.167Z,101038.88
2023-01-28T02:41:13.945Z,101032.19
2023-01-28T02:43:47.008Z,101033.09
2023-01-28T02:46:44.604Z,101032.97
2023-01-28T02:49:25.865Z,101038.75
2023-01-28T02:52:42.137Z,101042.28
2023-01-28T02:55:34.104Z,101037.72
2023-01-28T02:58:06.869Z,101045.84
2023-01-28T03:01:08.572Z,101042.13
2023-01-28T03:03:40.572Z,101046.16
2023-01-28T03:06:18.432Z,101042.38
2023-01-28T03:09:17.909Z,101041.59
2023-01-28T03:12:11.975Z,101045.59
2023-01-28T03:14:59.105Z,101044.66
2023-01-28T03:17:51.909Z,101046.06
2023-01-28T03:20:39.648Z,101043.44
2023-01-28T03:23:30.328Z,101046.50
2023-01-28T03:26:18.521Z,101041.19
2023-01-28T03:29:06.466Z,101051.72
2023-01-28T03:31:54.299Z,101047.84
2023-01-28T03:34:41.610Z,101042.19
2023-01-28T03:37:09.841Z,101042.19
2023-01-28T03:39:38.805Z,101049.19
2023-01-28T03:42:10.291Z,101037.63
2023-01-28T03:44:53.397Z,101036.84
2023-01-28T03:47:27.088Z,101039.78
2023-01-28T03:49:56.996Z,101045.25
2023-01-28T03:52:32.220Z,101046.91
2023-01-28T03:54:59.676Z,101048.91
2023-01-28T03:57:28.620Z,101041.06
2023-01-28T03:59:55.688Z,101046.84
2023-01-28T04:02:23.505Z,101045.34
2023-01-28T04:04:50.796Z,101040.81
2023-01-28T04:07:18.430Z,101046.38
2023-01-28T04:09:45.769Z,101045.22
2023-01-28T04:12:12.838Z,101052.72
2023-01-28T04:14:40.285Z,101048.66
2023-01-28T04:17:10.648Z,101045.44
2023-01-28T04:19:38.677Z,101038.13
2023-01-28T04:22:08.190Z,101044.09
2023-01-28T04:24:35.264Z,101045.22
2023-01-28T04:27:02.327Z,101046.03
2023-01-28T04:29:29.347Z,101042.13
2023-01-28T04:31:56.521Z,101051.56
2023-01-28T04:34:23.550Z,101044.75
2023-01-28T04:36:50.626Z,101050.81
2023-01-28T04:39:17.605Z,101047.63
2023-01-28T04:41:44.632Z,101045.44
2023-01-28T04:44:11.682Z,101049.09
2023-01-28T04:46:38.708Z,101046.56
2023-01-28T04:49:05.712Z,101045.22
2023-01-28T04:51:32.732Z,101050.66
2023-01-28T04:53:59.775Z,101055.69
2023-01-28T04:56:26.855Z,101054.88
2023-01-28T04:58:53.859Z,101062.38
2023-01-28T05:01:20.856Z,101057.50
2023-01-28T05:03:47.838Z,101061.34
2023-01-28T05:06:14.810Z,101059.84
2023-01-28T05:08:41.891Z,101058.84
2023-01-28T05:11:08.901Z,101061.00
2023-01-28T05:13:35.976Z,101066.38
2023-01-28T05:16:03.082Z,101058.53
2023-01-28T05:18:30.152Z,101062.72
2023-01-28T05:20:58.099Z,101061.78
2023-01-28T05:23:25.082Z,101059.19
2023-01-28T05:25:52.079Z,101073.84
2023-01-28T05:28:19.064Z,101061.16
2023-01-28T05:30:46.107Z,101063.06
2023-01-28T05:33:13.133Z,101063.97
2023-01-28T05:35:40.243Z,101063.19
2023-01-28T05:38:07.221Z,101065.19
2023-01-28T05:40:34.190Z,101071.00
2023-01-28T05:43:01.292Z,101070.75
2023-01-28T05:45:28.363Z,101066.66
2023-01-28T05:47:55.376Z,101068.38
2023-01-28T05:50:22.375Z,101072.66
2023-01-28T05:52:49.424Z,101071.88
2023-01-28T05:55:16.836Z,101072.38
2023-01-28T05:57:44.818Z,101075.06
2023-01-28T06:00:13.321Z,101074.28
2023-01-28T06:02:40.519Z,101080.13
2023-01-28T06:05:08.503Z,101076.19
2023-01-28T06:07:35.648Z,101069.81
2023-01-28T06:10:02.780Z,101088.09
2023-01-28T06:12:29.752Z,101089.69
2023-01-28T06:14:56.858Z,101086.66
2023-01-28T06:17:23.841Z,101088.91
2023-01-28T06:19:50.913Z,101084.91
2023-01-28T06:22:17.871Z,101089.78
2023-01-28T06:24:45.277Z,101092.38
2023-01-28T06:27:12.274Z,101093.66
2023-01-28T06:29:39.398Z,101099.22
2023-01-28T06:32:07.670Z,101093.78
2023-01-28T06:34:34.685Z,101096.31
2023-01-28T06:37:01.676Z,101093.59
2023-01-28T06:39:31.861Z,101099.03
2023-01-28T06:41:59.305Z,101102.31
2023-01-28T06:44:26.739Z,101092.91
2023-01-28T06:46:53.715Z,101085.41
2023-01-28T06:49:21.903Z,101111.28
2023-01-28T06:51:49.484Z,101110.25
2023-01-28T06:54:16.614Z,101107.09
2023-01-28T06:56:44.244Z,101105.38
2023-01-28T06:59:11.373Z,101103.34
2023-01-28T07:01:38.442Z,101109.88
2023-01-28T07:04:05.680Z,101115.81
2023-01-28T07:06:33.087Z,101116.75
2023-01-28T07:09:00.286Z,101120.25
2023-01-28T07:11:27.364Z,101116.50
2023-01-28T07:13:54.430Z,101114.00
2023-01-28T07:16:21.409Z,101126.13
2023-01-28T07:18:48.414Z,101122.16
2023-01-28T07:21:15.424Z,101125.78
2023-01-28T07:23:42.468Z,101126.78
2023-01-28T07:26:10.003Z,101125.44
2023-01-28T07:28:37.017Z,101121.16
2023-01-28T07:31:04.183Z,101129.97
2023-01-28T07:33:31.335Z,101130.53
2023-01-28T07:35:58.338Z,101126.03
2023-01-28T07:38:25.309Z,101133.72
2023-01-28T07:40:52.298Z,101134.41
2023-01-28T07:43:19.409Z,101136.91
2023-01-28T07:45:48.553Z,101134.41
2023-01-28T07:48:15.926Z,101137.69
2023-01-28T07:50:43.074Z,101139.41
2023-01-28T07:53:12.462Z,101140.63
2023-01-28T07:55:39.875Z,101142.28
2023-01-28T07:58:08.637Z,101135.41
2023-01-28T08:00:37.483Z,101143.59
2023-01-28T08:03:08.101Z,101142.97
2023-01-28T08:05:50.161Z,101142.91
2023-01-28T08:08:17.718Z,101131.94
2023-01-28T08:10:45.610Z,101131.44
2023-01-28T08:13:14.533Z,101129.75
2023-01-28T08:15:42.140Z,101135.19
2023-01-28T08:18:13.361Z,101134.66
2023-01-28T08:20:43.011Z,101127.72
2023-01-28T08:23:15.028Z,101139.63
2023-01-28T08:25:42.705Z,101136.47
2023-01-28T08:28:10.721Z,101138.81
2023-01-28T08:30:39.141Z,101136.22
2023-01-28T08:33:09.247Z,101127.34
2023-01-28T08:35:36.427Z,101123.06
2023-01-28T08:38:06.384Z,101130.66
2023-01-28T08:40:34.504Z,101128.81
2023-01-28T08:43:01.865Z,101136.13
2023-01-28T08:45:29.323Z,101135.75
2023-01-28T08:48:15.965Z,101133.72
2023-01-28T08:50:43.967Z,101130.53
2023-01-28T08:53:20.888Z,101135.97
2023-01-28T08:55:48.387Z,101136.69
2023-01-28T08:58:18.452Z,101137.00
2023-01-28T09:00:46.344Z,101146.47
2023-01-28T09:03:13.663Z,101148.25
2023-01-28T09:05:41.032Z,101146.69
2023-01-28T09:08:12.761Z,101149.97
2023-01-28T09:10:41.343Z,101151.13
2023-01-28T09:13:14.971Z,101150.44
2023-01-28T09:15:42.972Z,101149.97
2023-01-28T09:18:10.792Z,101166.22
2023-01-28T09:20:38.293Z,101164.06
2023-01-28T09:23:06.530Z,101168.47
2023-01-28T09:25:36.123Z,101168.25
2023-01-28T09:28:03.611Z,101165.88
2023-01-28T09:30:31.003Z,101163.25
2023-01-28T09:32:58.782Z,101167.22
2023-01-28T09:35:26.324Z,101167.44
2023-01-28T09:37:58.497Z,101166.88
2023-01-28T09:40:45.138Z,101164.41
2023-01-28T09:43:42.458Z,101166.66
2023-01-28T09:46:14.640Z,101163.97
2023-01-28T09:48:48.901Z,101157.63
2023-01-28T09:51:42.023Z,101160.75
2023-01-28T09:54:44.378Z,101167.03
2023-01-28T09:57:27.612Z,101166.78
2023-01-28T09:59:54.609Z,101163.28
2023-01-28T10:02:49.366Z,101163.63
2023-01-28T10:06:17.728Z,101161.56
2023-01-28T10:09:19.194Z,101161.13
2023-01-28T10:12:27.343Z,101159.66
2023-01-28T10:15:22.545Z,101150.34
2023-01-28T10:18:07.195Z,101155.47
2023-01-28T10:21:10.407Z,101146.16
2023-01-28T10:24:00.392Z,101158.63
2023-01-28T10:26:37.033Z,101155.47
2023-01-28T10:29:19.395Z,101151.50
2023-01-28T10:32:05.616Z,101148.09
2023-01-28T10:34:32.729Z,101144.44
2023-01-28T10:37:00.237Z,101147.06
2023-01-28T10:39:29.636Z,101142.88
2023-01-28T10:41:58.595Z,101139.47
2023-01-28T10:44:39.091Z,101135.84
2023-01-28T10:47:25.258Z,101143.69
2023-01-28T10:49:58.009Z,101140.72
2023-01-28T10:52:24.979Z,101136.06
2023-01-28T10:55:06.546Z,101144.34
2023-01-28T10:57:34.845Z,101142.44
2023-01-28T11:00:36.905Z,101138.94
2023-01-28T11:03:04.137Z,101135.50
2023-01-28T11:05:31.862Z,101138.00
2023-01-28T11:08:15.405Z,101137.09
2023-01-28T11:10:43.288Z,101128.69
2023-01-28T11:13:19.908Z,101124.63
2023-01-28T11:16:04.353Z,101125.88
2023-01-28T11:18:40.060Z,101123.81
2023-01-28T11:21:19.748Z,101125.88
2023-01-28T11:23:51.638Z,101125.53
2023-01-28T11:26:26.407Z,101119.63
2023-01-28T11:28:54.130Z,101121.91
2023-01-28T11:31:24.322Z,101123.03
2023-01-28T11:34:00.013Z,101116.44
2023-01-28T11:36:30.337Z,101116.13
2023-01-28T11:39:16.249Z,101109.63
2023-01-28T11:41:43.424Z,101113.38
2023-01-28T11:44:27.050Z,101109.75
2023-01-28T11:47:14.653Z,101116.91
2023-01-28T11:50:33.756Z,101107.72
2023-01-28T11:53:32.348Z,101099.66
2023-01-28T11:56:43.444Z,101111.25
2023-01-28T11:59:28.311Z,101109.53
2023-01-28T12:02:31.349Z,101111.25
2023-01-28T12:05:34.861Z,101109.00
2023-01-28T12:08:30.446Z,101104.06
2023-01-28T12:11:07.856Z,101114.50
2023-01-28T12:14:08.547Z,101105.78
2023-01-28T12:17:09.606Z,101111.47
2023-01-28T12:20:08.269Z,101114.84
2023-01-28T12:23:03.554Z,101099.53
2023-01-28T12:25:39.369Z,101105.34
2023-01-28T12:28:30.631Z,101110.66
2023-01-28T12:31:32.609Z,101100.34
2023-01-28T12:34:52.539Z,101094.31
2023-01-28T12:38:15.098Z,101103.09
2023-01-28T12:41:08.891Z,101099.09
2023-01-28T12:43:41.621Z,101101.25
2023-01-28T12:46:39.128Z,101110.44
2023-01-28T12:49:17.721Z,101101.38
2023-01-28T12:52:18.020Z,101112.69
2023-01-28T12:55:15.704Z,101114.06
2023-01-28T12:57:43.869Z,101110.09
2023-01-28T13:00:46.221Z,101105.69
2023-01-28T13:03:35.391Z,101109.53
2023-01-28T13:06:44.725Z,101104.66
2023-01-28T13:09:24.530Z,101107.97
2023-01-28T13:11:57.214Z,101112.59
2023-01-28T13:14:31.100Z,101106.94
2023-01-28T13:17:11.017Z,101106.56
2023-01-28T13:19:41.818Z,101106.56
2023-01-28T13:22:29.269Z,101116.09
2023-01-28T13:24:56.409Z,101117.38
2023-01-28T13:27:29.147Z,101113.63
2023-01-28T13:30:30.926Z,101115.19
2023-01-28T13:33:04.941Z,101108.50
2023-01-28T13:35:39.423Z,101111.22
2023-01-28T13:38:18.064Z,101112.94
2023-01-28T13:40:56.220Z,101112.69
2023-01-28T13:43:41.564Z,101117.13
2023-01-28T13:46:26.943Z,101112.59
2023-01-28T13:48:58.769Z,101114.50
2023-01-28T13:51:35.656Z,101106.22
2023-01-28T13:54:21.756Z,101104.50
2023-01-28T13:57:01.116Z,101112.00
2023-01-28T13:59:39.652Z,101113.63
2023-01-28T14:02:06.571Z,101110.44
2023-01-28T14:05:20.512Z,101105.53
2023-01-28T14:07:54.647Z,101106.66
2023-01-28T14:10:49.204Z,101109.53
2023-01-28T14:13:30.944Z,101106.13
2023-01-28T14:16:38.665Z,101111.09
2023-01-28T14:19:09.406Z,101112.13
2023-01-28T14:21:37.014Z,101116.31
2023-01-28T14:24:05.044Z,101109.63
2023-01-28T14:27:05.800Z,101114.84
2023-01-28T14:30:03.858Z,101112.59
2023-01-28T14:32:33.310Z,101108.38
2023-01-28T14:35:07.318Z,101110.66
2023-01-28T14:37:35.028Z,101112.44
2023-01-28T14:40:08.007Z,101111.09
2023-01-28T14:42:42.224Z,101113.00
2023-01-28T14:45:48.966Z,101109.38
2023-01-28T14:48:58.422Z,101116.31
2023-01-28T14:52:07.189Z,101112.31
2023-01-28T14:55:13.874Z,101109.03
2023-01-28T14:57:56.554Z,101116.75
2023-01-28T15:00:30.897Z,101117.00
2023-01-28T15:02:57.971Z,101119.47
2023-01-28T15:05:28.290Z,101119.22
2023-01-28T15:07:56.508Z,101119.44
2023-01-28T15:10:38.127Z,101122.03
2023-01-28T15:13:24.428Z,101116.94
2023-01-28T15:15:58.064Z,101125.47
2023-01-28T15:18:45.705Z,101126.16
2023-01-28T15:21:12.760Z,101132.47
2023-01-28T15:23:43.861Z,101134.41
2023-01-28T15:26:27.504Z,101136.16
2023-01-28T15:28:56.024Z,101142.41
2023-01-28T15:31:28.256Z,101144.31
2023-01-28T15:34:16.760Z,101134.66
2023-01-28T15:36:44.459Z,101146.53
2023-01-28T15:39:22.958Z,101140.75
2023-01-28T15:41:58.948Z,101147.59
2023-01-28T15:44:38.036Z,101137.78
2023-01-28T15:47:23.657Z,101134.97
2023-01-28T15:49:58.072Z,101145.41
2023-01-28T15:52:39.190Z,101136.56
2023-01-28T15:55:29.228Z,101133.97
2023-01-28T15:57:56.611Z,101138.72
2023-01-28T16:00:25.547Z,101140.38
2023-01-28T16:02:55.457Z,101138.78
2023-01-28T16:05:39.812Z,101138.13
2023-01-28T16:08:28.424Z,101144.00
2023-01-28T16:10:57.182Z,101141.25
2023-01-28T16:13:28.155Z,101153.75
2023-01-28T16:15:57.329Z,101150.75
2023-01-28T16:18:37.250Z,101154.47
2023-01-28T16:21:09.994Z,101150.19
2023-01-28T16:23:39.451Z,101146.22
2023-01-28T16:26:24.102Z,101156.19
2023-01-28T16:28:51.264Z,101148.38
2023-01-28T16:31:19.077Z,101142.78
2023-01-28T16:33:46.457Z,101146.28
2023-01-28T16:36:16.830Z,101149.00
2023-01-28T16:38:43.885Z,101155.28
2023-01-28T16:41:23.951Z,101152.88
2023-01-28T16:43:50.950Z,101147.66
2023-01-28T16:46:18.067Z,101147.41
2023-01-28T16:48:45.252Z,101153.09
2023-01-28T16:51:19.617Z,101148.75
2023-01-28T16:53:48.489Z,101167.47
2023-01-28T16:56:35.969Z,101161.91
2023-01-28T16:59:06.052Z,101159.56
2023-01-28T17:01:33.761Z,101151.84
2023-01-28T17:04:00.888Z,101149.47
2023-01-28T17:06:27.903Z,101156.06
2023-01-28T17:08:54.944Z,101154.41
2023-01-28T17:11:22.635Z,101147.59
2023-01-28T17:13:49.629Z,101143.81
2023-01-28T17:16:16.652Z,101150.00
2023-01-28T17:18:43.660Z,101146.31
2023-01-28T17:21:11.128Z,101140.94
2023-01-28T17:23:39.054Z,101151.38
2023-01-28T17:26:07.575Z,101154.34
2023-01-28T17:28:35.382Z,101151.78
2023-01-28T17:31:14.085Z,101156.75
2023-01-28T17:33:42.526Z,101152.78
2023-01-28T17:36:10.228Z,101160.81
2023-01-28T17:38:37.456Z,101155.22
2023-01-28T17:41:08.672Z,101165.19
2023-01-28T17:43:35.678Z,101162.66
2023-01-28T17:46:14.493Z,101165.63
2023-01-28T17:48:44.064Z,101170.25
2023-01-28T17:51:11.683Z,101177.50
2023-01-28T17:53:39.346Z,101169.00
2023-01-28T17:56:06.788Z,101149.72
2023-01-28T17:58:33.757Z,101161.13
2023-01-28T18:01:10.131Z,101164.19
2023-01-28T18:03:37.372Z,101164.63
2023-01-28T18:06:04.545Z,101168.69
2023-01-28T18:08:31.570Z,101181.84
2023-01-28T18:10:59.438Z,101182.88
2023-01-28T18:13:26.379Z,101186.13
2023-01-28T18:15:53.377Z,101191.91
2023-01-28T18:18:20.352Z,101196.59
2023-01-28T18:20:58.979Z,101193.09
2023-01-28T18:23:26.100Z,101201.56
2023-01-28T18:25:57.624Z,101204.16
2023-01-28T18:28:25.568Z,101207.38
2023-01-28T18:30:53.090Z,101217.03
2023-01-28T18:33:22.225Z,101216.63
2023-01-28T18:35:49.490Z,101208.50
2023-01-28T18:38:18.533Z,101211.94
2023-01-28T18:40:46.751Z,101200.97
2023-01-28T18:43:14.601Z,101195.69
2023-01-28T18:45:45.662Z,101204.25
2023-01-28T18:48:12.722Z,101210.88
2023-01-28T18:50:39.683Z,101208.47
2023-01-28T18:53:06.800Z,101206.03
2023-01-28T18:55:33.928Z,101205.78
2023-01-28T18:58:00.930Z,101202.50
2023-01-28T19:00:27.919Z,101197.31
2023-01-28T19:02:54.870Z,101193.00
2023-01-28T19:05:21.885Z,101190.03
2023-01-28T19:07:48.900Z,101192.41
2023-01-28T19:10:19.474Z,101192.78
2023-01-28T19:12:46.825Z,101196.47
2023-01-28T19:15:14.193Z,101193.88
2023-01-28T19:17:42.356Z,101199.09
2023-01-28T19:20:10.480Z,101206.50
2023-01-28T19:22:37.546Z,101201.19
2023-01-28T19:25:05.589Z,101200.31
2023-01-28T19:27:32.606Z,101195.81
2023-01-28T19:29:59.599Z,101201.38
2023-01-28T19:32:27.857Z,101202.47
2023-01-28T19:34:55.075Z,101208.84
2023-01-28T19:37:22.801Z,101204.31
2023-01-28T19:39:49.989Z,101205.50
2023-01-28T19:42:17.018Z,101207.75
2023-01-28T19:44:44.033Z,101209.53
2023-01-28T19:47:11.068Z,101204.47
2023-01-28T19:49:38.053Z,101225.69
2023-01-28T19:52:09.046Z,101221.78
2023-01-28T19:54:36.063Z,101222.03
2023-01-28T19:57:03.066Z,101218.84
2023-01-28T19:59:30.069Z,101226.97
2023-01-28T20:01:57.128Z,101235.69
2023-01-28T20:04:24.151Z,101230.75
2023-01-28T20:06:51.134Z,101226.84
2023-01-28T20:09:22.199Z,101216.22
2023-01-28T20:11:49.238Z,101218.06
2023-01-28T20:14:18.061Z,101222.13
2023-01-28T20:16:45.059Z,101222.81
2023-01-28T20:19:19.064Z,101226.63
2023-01-28T20:21:47.287Z,101228.03
2023-01-28T20:24:15.726Z,101232.66
2023-01-28T20:26:44.090Z,101240.16
2023-01-28T20:29:20.673Z,101239.69
2023-01-28T20:32:00.875Z,101236.38
2023-01-28T20:34:32.098Z,101228.50
2023-01-28T20:36:59.103Z,101238.06
2023-01-28T20:39:26.101Z,101236.31
2023-01-28T20:41:53.201Z,101225.13
2023-01-28T20:44:20.378Z,101244.53
2023-01-28T20:46:47.348Z,101249.97
2023-01-28T20:49:14.333Z,101251.44
2023-01-28T20:51:41.285Z,101248.69
2023-01-28T20:54:08.308Z,101243.00
2023-01-28T20:56:35.338Z,101246.50
2023-01-28T20:59:05.943Z,101249.00
2023-01-28T21:01:35.488Z,101247.91
2023-01-28T21:04:08.497Z,101246.19
2023-01-28T21:06:37.848Z,101255.84
2023-01-28T21:09:06.150Z,101260.25
2023-01-28T21:11:33.369Z,101259.13
2023-01-28T21:14:00.447Z,101250.78
2023-01-28T21:16:28.485Z,101256.41
2023-01-28T21:18:55.467Z,101251.00
2023-01-28T21:21:26.494Z,101246.91
2023-01-28T21:23:56.820Z,101247.66
2023-01-28T21:26:24.563Z,101242.97
2023-01-28T21:28:52.083Z,101236.31
2023-01-28T21:31:25.413Z,101225.94
2023-01-28T21:33:55.433Z,101228.53
2023-01-28T21:36:24.144Z,101223.69
2023-01-28T21:39:00.058Z,101232.31
2023-01-28T21:41:27.919Z,101229.84
2023-01-28T21:43:57.599Z,101227.75
2023-01-28T21:46:28.865Z,101216.81
2023-01-28T21:48:58.407Z,101236.28
2023-01-28T21:51:35.594Z,101223.06
2023-01-28T21:54:04.876Z,101209.63
2023-01-28T21:56:32.023Z,101229.22
2023-01-28T21:59:17.504Z,101212.81
2023-01-28T22:01:45.284Z,101203.53
2023-01-28T22:04:13.161Z,101206.50
2023-01-28T22:06:42.288Z,101196.16
2023-01-28T22:09:11.937Z,101204.84
2023-01-28T22:11:40.711Z,101188.84
2023-01-28T22:14:08.027Z,101194.31
2023-01-28T22:16:35.880Z,101199.06
2023-01-28T22:19:03.478Z,101197.44
2023-01-28T22:21:31.203Z,101200.69
2023-01-28T22:23:58.578Z,101199.91
2023-01-28T22:26:25.662Z,101197.22
2023-01-28T22:28:52.668Z,101192.31
2023-01-28T22:31:19.849Z,101195.13
2023-01-28T22:33:46.965Z,101200.97
2023-01-28T22:36:16.288Z,101192.84
2023-01-28T22:38:45.259Z,101197.94
2023-01-28T22:41:18.943Z,101203.56
2023-01-28T22:43:47.105Z,101208.66
2023-01-28T22:46:15.134Z,101209.97
2023-01-28T22:48:42.195Z,101209.84
2023-01-28T22:51:18.873Z,101215.97
2023-01-28T22:53:47.397Z,101224.72
2023-01-28T22:56:15.555Z,101221.06
2023-01-28T22:58:42.864Z,101234.97
2023-01-28T23:01:10.309Z,101229.25
2023-01-28T23:03:37.452Z,101226.53
2023-01-28T23:06:05.857Z,101232.91
2023-01-28T23:08:33.613Z,101227.72
2023-01-28T23:11:02.745Z,101230.59
2023-01-28T23:13:50.943Z,101233.81
2023-01-28T23:16:36.575Z,101231.97
2023-01-28T23:19:22.953Z,101229.16
2023-01-28T23:22:09.470Z,101224.75
2023-01-28T23:24:36.450Z,101208.44
2023-01-28T23:27:03.726Z,101207.66
2023-01-28T23:29:31.811Z,101226.53
2023-01-28T23:32:09.846Z,101222.78
2023-01-28T23:34:44.533Z,101223.69
2023-01-28T23:37:15.776Z,101220.31
2023-01-28T23:39:43.271Z,101211.69
2023-01-28T23:42:21.237Z,101214.00
2023-01-28T23:44:48.443Z,101210.25
2023-01-28T23:47:15.960Z,101210.91
2023-01-28T23:49:43.001Z,101209.56
2023-01-28T23:52:10.684Z,101212.06
2023-01-28T23:54:37.917Z,101207.34
2023-01-28T23:57:05.147Z,101214.59
2023-01-28T23:59:32.576Z,101216.09
